Time;durP1;ratioP1;P1;durP2;ratioP2;P2;SDS_P1;SDS_P2;PMS_P1;PMS_P2;Temp;Humidity;BMP_temperature;BMP_pressure;BME280_temperature;BME280_humidity;BME280_pressure;Samples;Min_cycle;Max_cycle;Signal;HPM_P1;HPM_P2
2021/01/31 00:01:29;;;;;;;42.27;22.87;;;;;;;;;;4886911;28;20613;-74
2021/01/31 00:03:51;;;;;;;46.90;23.30;;;;;;;;;;4883258;28;20587;-76
2021/01/31 00:06:14;;;;;;;42.27;21.57;;;;;;;;;;4885224;28;20618;-72
2021/01/31 00:08:36;;;;;;;42.33;22.83;;;;;;;;;;4882565;28;20667;-73
2021/01/31 00:11:00;;;;;;;41.83;23.63;;;-2.10;1.00;;;;;;4878468;28;20618;-73
2021/01/31 00:13:24;;;;;;;45.17;23.33;;;-2.20;1.00;;;;;;4891821;28;21017;-73
2021/01/31 00:15:50;;;;;;;47.83;23.63;;;-2.10;99.90;;;;;;4885343;28;20998;-73
2021/01/31 00:18:14;;;;;;;39.80;21.43;;;-2.10;1.00;;;;;;4888516;28;21029;-73
2021/01/31 00:20:37;;;;;;;44.20;22.33;;;-2.10;1.00;;;;;;4887918;28;20664;-73
2021/01/31 00:23:00;;;;;;;35.00;19.50;;;;;;;;;;4880764;28;20956;-74
2021/01/31 00:25:22;;;;;;;30.53;17.83;;;;;;;;;;4879068;28;21323;-72
2021/01/31 00:27:45;;;;;;;38.00;18.70;;;;;;;;;;4886692;28;20642;-73
2021/01/31 00:30:11;;;;;;;33.87;19.27;;;-2.20;58.70;;;;;;4884141;28;20614;-73
2021/01/31 00:32:34;;;;;;;34.40;18.33;;;;;;;;;;4886630;28;20690;-73
2021/01/31 00:34:57;;;;;;;37.23;19.83;;;-1.90;99.90;;;;;;4886955;28;20618;-74
2021/01/31 00:37:20;;;;;;;39.67;20.50;;;-1.90;99.90;;;;;;4885600;28;20613;-74
2021/01/31 00:39:43;;;;;;;38.63;20.63;;;;;;;;;;4887948;28;20610;-73
2021/01/31 00:42:05;;;;;;;42.73;23.03;;;;;;;;;;4886649;28;20639;-74
2021/01/31 00:44:28;;;;;;;43.43;22.90;;;;;;;;;;4883941;28;20610;-73
2021/01/31 00:46:50;;;;;;;39.80;22.03;;;-1.80;99.90;;;;;;4880168;28;21202;-73
2021/01/31 00:49:13;;;;;;;38.50;21.47;;;;;;;;;;4892718;28;20605;-73
2021/01/31 00:51:36;;;;;;;39.43;21.33;;;;;;;;;;4885255;28;20641;-73
2021/01/31 00:53:59;;;;;;;41.13;21.70;;;;;;;;;;4889976;28;20617;-75
2021/01/31 00:56:21;;;;;;;42.53;21.30;;;;;;;;;;4880526;28;20633;-74
2021/01/31 00:58:44;;;;;;;38.80;21.03;;;-1.80;16.20;;;;;;4881334;28;20606;-74
2021/01/31 01:01:07;;;;;;;41.17;21.60;;;;;;;;;;4880483;28;21171;-73
2021/01/31 01:03:30;;;;;;;41.10;22.00;;;-1.90;1.00;;;;;;4887664;28;20647;-74
2021/01/31 01:05:58;;;;;;;40.53;21.67;;;;;;;;;;4879998;28;20614;-74
2021/01/31 01:08:20;;;;;;;41.20;21.60;;;;;;;;;;4884312;28;21230;-73
2021/01/31 01:10:42;;;;;;;40.10;21.37;;;;;;;;;;4881736;28;21015;-74
2021/01/31 01:13:05;;;;;;;39.93;21.80;;;-2.00;99.90;;;;;;4883716;28;21007;-73
2021/01/31 01:15:28;;;;;;;46.37;24.13;;;;;;;;;;4883610;28;20664;-73
2021/01/31 01:17:50;;;;;;;51.17;28.23;;;;;;;;;;4884398;28;21017;-73
2021/01/31 01:20:14;;;;;;;62.73;31.83;;;-2.00;99.90;;;;;;4884240;28;20606;-73
2021/01/31 01:22:37;;;;;;;66.30;31.10;;;;;;;;;;4882160;28;20951;-74
2021/01/31 01:25:02;;;;;;;54.93;29.27;;;;;;;;;;4888604;28;20648;-74
2021/01/31 01:27:24;;;;;;;51.47;27.57;;;;;;;;;;4886831;28;20650;-73
2021/01/31 01:29:47;;;;;;;53.00;27.63;;;;;;;;;;4886335;28;20679;-73
2021/01/31 01:32:09;;;;;;;42.20;22.60;;;;;;;;;;4889798;28;20651;-74
2021/01/31 01:34:31;;;;;;;32.77;16.57;;;;;;;;;;4883492;28;20668;-74
2021/01/31 01:36:54;;;;;;;27.03;15.63;;;-2.00;99.90;;;;;;4884469;28;20622;-73
2021/01/31 01:39:16;;;;;;;23.10;12.87;;;;;;;;;;4879222;28;20634;-73
2021/01/31 01:41:41;;;;;;;19.20;11.43;;;-2.00;99.90;;;;;;4886669;28;20601;-74
2021/01/31 01:44:03;;;;;;;17.30;10.17;;;;;;;;;;4889820;28;20609;-73
2021/01/31 01:46:39;;;;;;;20.10;11.27;;;-2.00;1.00;;;;;;4885759;28;20649;-73
2021/01/31 01:49:07;;;;;;;17.87;10.10;;;-2.10;1.00;;;;;;4885420;28;20589;-74
2021/01/31 01:51:34;;;;;;;19.13;10.80;;;-2.10;1.00;;;;;;4887568;28;20655;-73
2021/01/31 01:54:00;;;;;;;19.43;10.03;;;-2.20;99.90;;;;;;4889697;28;21248;-73
2021/01/31 01:56:27;;;;;;;16.50;10.10;;;-2.20;1.00;;;;;;4886438;28;20622;-73
2021/01/31 01:58:49;;;;;;;17.23;10.60;;;;;;;;;;4889648;28;20671;-73
2021/01/31 02:01:11;;;;;;;17.57;10.30;;;;;;;;;;4888370;28;21189;-74
2021/01/31 02:03:37;;;;;;;21.17;10.83;;;-2.30;1.00;;;;;;4888635;28;20649;-74
2021/01/31 02:06:04;;;;;;;20.70;11.53;;;-2.30;1.00;;;;;;4891659;28;20674;-74
2021/01/31 02:08:26;;;;;;;17.93;10.10;;;;;;;;;;4888279;28;20650;-74
2021/01/31 02:10:49;;;;;;;18.43;9.67;;;-2.30;1.00;;;;;;4888356;28;20609;-74
2021/01/31 02:13:12;;;;;;;16.10;9.50;;;;;;;;;;4886989;28;21006;-73
2021/01/31 02:15:34;;;;;;;15.73;9.70;;;;;;;;;;4889161;28;20662;-73
2021/01/31 02:18:09;;;;;;;17.30;9.90;;;-2.50;1.00;;;;;;4889700;28;20617;-73
2021/01/31 02:21:14;;;;;;;20.50;10.43;;;-2.70;99.90;;;;;;4901392;28;20641;-74
2021/01/31 02:24:16;;;;;;;17.07;9.63;;;-2.80;1.00;;;;;;4886264;28;20594;-73
2021/01/31 02:27:17;;;;;;;18.13;9.30;;;-3.10;1.00;;;;;;4892818;28;20597;-74
2021/01/31 02:30:21;;;;;;;16.77;9.37;;;-3.50;1.00;;;;;;4835946;28;20626;-73
2021/01/31 02:33:08;;;;;;;19.50;9.20;;;-3.50;1.00;;;;;;4888917;28;20609;-73
2021/01/31 02:35:31;;;;;;;16.37;8.83;;;-3.70;1.00;;;;;;4884886;28;20648;-74
2021/01/31 02:37:58;;;;;;;11.97;8.47;;;-3.80;1.00;;;;;;4881705;28;20664;-73
2021/01/31 02:40:25;;;;;;;14.27;8.20;;;-4.00;1.00;;;;;;4888048;28;20611;-74
2021/01/31 02:42:53;;;;;;;12.80;8.47;;;-4.20;99.90;;;;;;4891243;28;20637;-73
2021/01/31 02:45:24;;;;;;;14.30;8.47;;;-4.30;1.00;;;;;;4887149;28;20622;-73
2021/01/31 02:47:53;;;;;;;18.23;9.63;;;-4.50;1.00;;;;;;4888999;28;20622;-73
2021/01/31 02:50:22;;;;;;;16.77;8.83;;;-4.60;99.90;;;;;;4889579;28;20988;-73
2021/01/31 02:52:49;;;;;;;15.57;8.47;;;-4.80;99.90;;;;;;4891084;28;21230;-73
2021/01/31 02:55:18;;;;;;;14.10;8.43;;;-5.00;99.90;;;;;;4881665;28;20676;-73
2021/01/31 02:57:44;;;;;;;15.77;9.13;;;-5.10;1.00;;;;;;4885688;28;20642;-73
2021/01/31 03:00:14;;;;;;;16.07;9.47;;;-5.30;1.00;;;;;;4881411;28;20603;-73
2021/01/31 03:02:40;;;;;;;17.60;9.73;;;-5.40;99.90;;;;;;4885080;28;20669;-72
2021/01/31 03:05:07;;;;;;;18.43;9.53;;;-5.50;1.00;;;;;;4881200;28;20607;-72
2021/01/31 03:07:35;;;;;;;18.70;9.73;;;-5.50;99.90;;;;;;4882213;28;21048;-73
2021/01/31 03:10:02;;;;;;;16.53;9.53;;;-5.60;1.00;;;;;;4888165;28;20617;-73
2021/01/31 03:12:31;;;;;;;15.70;9.50;;;-5.70;24.40;;;;;;4885719;28;20613;-73
2021/01/31 03:14:58;;;;;;;17.13;9.40;;;-5.70;99.90;;;;;;4891871;28;20610;-73
2021/01/31 03:17:26;;;;;;;19.60;9.47;;;-5.70;1.00;;;;;;4881022;28;20950;-73
2021/01/31 03:19:54;;;;;;;17.60;9.50;;;-5.60;1.00;;;;;;4893723;28;20594;-73
2021/01/31 03:22:26;;;;;;;17.77;11.00;;;-5.50;1.00;;;;;;4886195;28;20610;-73
2021/01/31 03:24:54;;;;;;;15.37;9.37;;;-5.50;1.00;;;;;;4883744;28;20586;-73
2021/01/31 03:27:22;;;;;;;17.70;9.80;;;-5.60;1.00;;;;;;4885381;28;20619;-73
2021/01/31 03:29:44;;;;;;;17.37;9.77;;;;;;;;;;4889081;28;20606;-73
2021/01/31 03:32:10;;;;;;;16.67;8.87;;;-5.60;1.00;;;;;;4892806;28;20606;-73
2021/01/31 03:34:44;;;;;;;14.37;9.10;;;-5.70;1.00;;;;;;4885104;28;20685;-73
2021/01/31 03:37:09;;;;;;;15.13;9.23;;;-5.80;1.00;;;;;;4885359;28;20652;-72
2021/01/31 03:39:32;;;;;;;15.37;9.20;;;-5.90;1.00;;;;;;4887442;28;20655;-73
2021/01/31 03:41:55;;;;;;;14.97;9.33;;;-6.00;1.00;;;;;;4880157;28;20695;-73
2021/01/31 03:44:18;;;;;;;19.30;10.30;;;;;;;;;;4886467;28;21319;-73
2021/01/31 03:46:44;;;;;;;15.97;9.20;;;-6.20;1.00;;;;;;4892229;28;20975;-74
2021/01/31 03:49:11;;;;;;;13.97;8.97;;;-6.30;1.00;;;;;;4886642;28;20710;-74
2021/01/31 03:51:34;;;;;;;18.07;9.27;;;-6.30;1.00;;;;;;4878141;28;21437;-73
2021/01/31 03:53:57;;;;;;;17.20;8.43;;;-6.40;1.00;;;;;;4882396;28;20606;-73
2021/01/31 03:56:24;;;;;;;14.70;7.97;;;-6.40;1.00;;;;;;4877489;28;20646;-73
2021/01/31 03:58:51;;;;;;;16.57;8.10;;;-6.40;1.00;;;;;;4883127;28;20659;-73
2021/01/31 04:01:14;;;;;;;15.10;8.10;;;;;;;;;;4886411;28;20630;-73
2021/01/31 04:03:40;;;;;;;16.43;8.83;;;-6.60;1.00;;;;;;4886857;28;20671;-73
2021/01/31 04:06:07;;;;;;;15.57;8.37;;;-6.60;1.00;;;;;;4887279;28;20606;-73
2021/01/31 04:08:31;;;;;;;13.80;8.70;;;-6.70;1.00;;;;;;4878971;28;20642;-73
2021/01/31 04:10:54;;;;;;;19.53;10.10;;;;;;;;;;4890224;28;20622;-73
2021/01/31 04:13:19;;;;;;;13.93;7.70;;;-6.80;1.00;;;;;;4889754;28;20667;-73
2021/01/31 04:15:45;;;;;;;14.60;7.87;;;-6.90;1.00;;;;;;4887060;28;20610;-73
2021/01/31 04:18:08;;;;;;;15.10;8.50;;;;;;;;;;4881715;28;20973;-73
2021/01/31 04:20:30;;;;;;;18.50;9.60;;;;;;;;;;4884875;28;20618;-73
2021/01/31 04:22:53;;;;;;;17.70;9.03;;;;;;;;;;4887197;28;20661;-72
2021/01/31 04:25:15;;;;;;;15.30;8.63;;;;;;;;;;4890692;28;20606;-74
2021/01/31 04:27:38;;;;;;;16.10;9.17;;;;;;;;;;4882062;28;20664;-72
2021/01/31 04:30:00;;;;;;;16.93;9.07;;;;;;;;;;4889075;28;20667;-72
2021/01/31 04:32:24;;;;;;;15.40;9.23;;;-7.40;1.00;;;;;;4884352;28;20624;-72
2021/01/31 04:34:47;;;;;;;19.73;9.20;;;;;;;;;;4889216;28;20659;-72
2021/01/31 04:37:12;;;;;;;16.53;9.90;;;;;;;;;;4879817;28;20648;-72
2021/01/31 04:39:34;;;;;;;24.23;11.50;;;;;;;;;;4888050;28;20615;-72
2021/01/31 04:41:56;;;;;;;20.47;10.60;;;;;;;;;;4884226;28;20610;-73
2021/01/31 04:44:21;;;;;;;21.13;10.70;;;-7.80;1.00;;;;;;4890716;28;20644;-73
2021/01/31 04:46:47;;;;;;;18.53;9.30;;;-7.90;1.00;;;;;;4882924;28;21062;-72
2021/01/31 04:49:23;;;;;;;17.57;8.83;;;-7.90;1.00;;;;;;4890086;28;20659;-73
2021/01/31 04:52:03;;;;;;;18.60;9.90;;;-8.00;1.00;;;;;;4888829;28;20653;-73
2021/01/31 04:54:38;;;;;;;19.70;10.90;;;-8.10;1.00;;;;;;4885121;28;20628;-74
2021/01/31 04:57:07;;;;;;;21.57;11.40;;;-8.10;1.00;;;;;;4887990;28;21003;-73
2021/01/31 04:59:32;;;;;;;20.80;10.87;;;-8.10;1.00;;;;;;4876861;28;20639;-73
2021/01/31 05:02:01;;;;;;;27.20;14.43;;;-8.20;1.00;;;;;;4884361;28;21190;-72
2021/01/31 05:04:27;;;;;;;22.93;12.17;;;-8.20;1.00;;;;;;4886369;28;20587;-73
2021/01/31 05:06:53;;;;;;;22.13;11.80;;;-8.30;1.00;;;;;;4886572;28;21196;-73
2021/01/31 05:09:18;;;;;;;22.53;12.13;;;-8.30;1.00;;;;;;4888092;28;20695;-74
2021/01/31 05:11:52;;;;;;;19.87;10.97;;;-8.30;1.00;;;;;;4886056;28;21231;-73
2021/01/31 05:14:21;;;;;;;24.27;11.53;;;-8.30;1.00;;;;;;4886557;28;20590;-74
2021/01/31 05:16:43;;;;;;;25.60;13.20;;;;;;;;;;4887887;28;20659;-73
2021/01/31 05:19:10;;;;;;;23.60;12.27;;;-8.40;1.00;;;;;;4893805;28;20650;-73
2021/01/31 05:21:35;;;;;;;21.33;11.40;;;-8.40;1.00;;;;;;4886815;28;20660;-74
2021/01/31 05:24:00;;;;;;;26.13;11.53;;;-8.50;1.00;;;;;;4887759;28;20603;-73
2021/01/31 05:26:23;;;;;;;21.57;11.47;;;;;;;;;;4888768;28;20652;-72
2021/01/31 05:28:51;;;;;;;18.80;10.87;;;-8.60;1.00;;;;;;4891099;28;20645;-73
2021/01/31 05:31:14;;;;;;;17.47;9.77;;;-8.60;1.00;;;;;;4882589;28;20675;-74
2021/01/31 05:33:49;;;;;;;20.43;11.23;;;-8.80;1.00;;;;;;4890084;28;20663;-74
2021/01/31 05:36:15;;;;;;;21.33;11.80;;;-8.80;1.00;;;;;;4889433;28;20635;-73
2021/01/31 05:38:41;;;;;;;25.73;13.10;;;-8.90;1.00;;;;;;4886689;28;20599;-73
2021/01/31 05:41:41;;;;;;;27.27;12.90;;;-8.90;1.00;;;;;;4887282;28;20652;-72
2021/01/31 05:44:07;;;;;;;24.93;12.43;;;-9.00;1.00;;;;;;4887457;28;20586;-72
2021/01/31 05:46:39;;;;;;;27.33;14.27;;;-9.00;1.00;;;;;;4887874;28;20668;-72
2021/01/31 05:49:01;;;;;;;42.53;17.57;;;;;;;;;;4887831;28;21185;-73
2021/01/31 05:51:32;;;;;;;43.83;19.63;;;-8.70;1.00;;;;;;4889524;28;20673;-71
2021/01/31 05:53:55;;;;;;;32.07;16.30;;;-8.60;13.60;;;;;;4889581;28;20630;-73
2021/01/31 05:56:23;;;;;;;29.63;15.97;;;-8.50;27.80;;;;;;4888191;28;20686;-73
2021/01/31 05:58:46;;;;;;;31.63;17.10;;;;;;;;;;4890514;28;20663;-73
2021/01/31 06:01:10;;;;;;;32.10;15.80;;;-8.40;48.10;;;;;;4892828;28;20662;-72
2021/01/31 06:03:32;;;;;;;29.67;15.00;;;;;;;;;;4895248;28;21059;-73
2021/01/31 06:06:07;;;;;;;30.40;15.67;;;-8.40;54.00;;;;;;4888052;28;20964;-74
2021/01/31 06:08:33;;;;;;;28.00;16.23;;;-8.40;54.70;;;;;;4886786;28;20676;-73
2021/01/31 06:11:06;;;;;;;27.80;16.10;;;-8.50;65.20;;;;;;4886851;28;20668;-74
2021/01/31 06:13:29;;;;;;;31.80;16.40;;;-8.50;51.40;;;;;;4885701;28;20610;-73
2021/01/31 06:15:54;;;;;;;29.63;16.10;;;-8.50;50.20;;;;;;4886774;28;21015;-72
2021/01/31 06:18:20;;;;;;;28.50;15.83;;;-8.60;48.10;;;;;;4886707;28;20617;-76
2021/01/31 06:20:45;;;;;;;25.27;14.93;;;-8.50;45.20;;;;;;4894343;28;20614;-73
2021/01/31 06:23:07;;;;;;;30.20;16.57;;;;;;;;;;4888477;28;21162;-73
2021/01/31 06:25:38;;;;;;;30.47;16.63;;;-8.30;38.60;;;;;;4882312;28;20643;-73
2021/01/31 06:28:22;;;;;;;30.87;15.87;;;-8.50;34.90;;;;;;4888177;28;20680;-72
2021/01/31 06:30:52;;;;;;;32.83;17.23;;;-8.50;33.70;;;;;;4880416;28;20588;-74
2021/01/31 06:33:14;;;;;;;32.03;17.00;;;;;;;;;;4894031;28;21067;-71
2021/01/31 06:35:36;;;;;;;35.57;18.07;;;;;;;;;;4891986;28;20693;-75
2021/01/31 06:38:23;;;;;;;32.73;17.37;;;-8.70;26.10;;;;;;4888436;28;20607;-73
2021/01/31 06:40:55;;;;;;;34.13;17.97;;;-8.40;20.70;;;;;;4886233;28;20642;-74
2021/01/31 06:43:37;;;;;;;32.47;17.47;;;-8.40;10.20;;;;;;4886320;28;21178;-72
2021/01/31 06:46:06;;;;;;;31.80;17.47;;;-8.40;1.00;;;;;;4886025;28;20629;-72
2021/01/31 06:48:45;;;;;;;36.60;19.23;;;-8.40;1.00;;;;;;4886301;28;20645;-74
2021/01/31 06:51:24;;;;;;;37.50;19.23;;;-8.60;1.00;;;;;;4887928;28;20620;-72
2021/01/31 06:54:13;;;;;;;37.33;19.97;;;-8.60;1.00;;;;;;4886562;28;20742;-74
2021/01/31 06:56:45;;;;;;;37.97;18.50;;;-8.70;1.00;;;;;;4880893;28;20762;-73
2021/01/31 06:59:42;;;;;;;33.70;17.10;;;-8.80;1.00;;;;;;4886852;28;20664;-73
2021/01/31 07:02:34;;;;;;;37.63;17.97;;;-8.80;1.00;;;;;;4882235;28;21264;-72
2021/01/31 07:05:14;;;;;;;39.17;18.37;;;-8.80;1.00;;;;;;4893898;28;20593;-75
2021/01/31 07:08:32;;;;;;;32.33;16.97;;;-8.70;1.00;;;;;;4882722;28;20602;-74
2021/01/31 07:11:18;;;;;;;36.00;17.47;;;-8.70;1.00;;;;;;4885894;28;21004;-74
2021/01/31 07:13:57;;;;;;;42.27;18.63;;;-8.60;1.00;;;;;;4876778;28;20627;-73
2021/01/31 07:16:39;;;;;;;36.13;18.17;;;-8.40;1.00;;;;;;4886002;28;21170;-72
2021/01/31 07:19:06;;;;;;;38.00;19.20;;;-8.30;1.00;;;;;;4886311;28;20590;-72
2021/01/31 07:21:32;;;;;;;36.80;19.13;;;-8.30;1.00;;;;;;4887365;28;20681;-73
2021/01/31 07:23:59;;;;;;;35.33;18.60;;;-8.30;1.00;;;;;;4886982;28;20659;-72
2021/01/31 07:26:32;;;;;;;39.47;20.03;;;-8.20;1.00;;;;;;4887367;28;20680;-71
2021/01/31 07:28:58;;;;;;;46.70;20.20;;;-8.00;1.00;;;;;;4893348;28;21018;-72
2021/01/31 07:31:43;;;;;;;40.47;19.80;;;-7.90;1.00;;;;;;4891723;28;21303;-73
2021/01/31 07:34:12;;;;;;;40.43;19.17;;;-7.50;1.00;;;;;;4887739;28;20651;-74
2021/01/31 07:36:39;;;;;;;50.73;24.00;;;-6.50;1.00;;;;;;4884815;28;20664;-72
2021/01/31 07:39:04;;;;;;;58.30;27.67;;;-5.00;24.70;;;;;;4882612;28;21151;-74
2021/01/31 07:41:27;;;;;;;59.53;28.73;;;-3.60;1.00;;;;;;4886444;28;20675;-74
2021/01/31 07:43:56;;;;;;;57.57;27.00;;;-2.50;1.00;;;;;;4887918;28;21031;-73
2021/01/31 07:46:19;;;;;;;53.83;27.30;;;-1.70;99.90;;;;;;4884422;28;21122;-77
2021/01/31 07:48:58;;;;;;;49.07;25.70;;;-0.90;99.90;;;;;;4887692;28;20671;-73
2021/01/31 07:52:00;;;;;;;53.60;28.03;;;-0.10;1.00;;;;;;4886771;28;21130;-74
2021/01/31 07:54:24;;;;;;;49.50;24.97;;;0.70;99.90;;;;;;4884628;28;20585;-74
2021/01/31 07:56:47;;;;;;;42.83;23.73;;;;;;;;;;4888913;28;20649;-73
2021/01/31 07:59:25;;;;;;;62.50;30.63;;;0.90;1.00;;;;;;4885886;28;20610;-73
2021/01/31 08:01:50;;;;;;;80.37;38.27;;;0.90;1.00;;;;;;4882518;28;20727;-74
2021/01/31 08:04:46;;;;;;;82.67;39.07;;;1.10;1.00;;;;;;4876565;28;20623;-73
2021/01/31 08:07:09;;;;;;;82.63;40.00;;;;;;;;;;4885906;28;20587;-74
2021/01/31 08:09:51;;;;;;;135.13;60.20;;;2.30;1.00;;;;;;4888049;28;20649;-73
2021/01/31 08:12:14;;;;;;;263.90;109.90;;;3.00;1.00;;;;;;4885689;28;21021;-73
2021/01/31 08:15:18;;;;;;;166.73;74.43;;;3.20;1.00;;;;;;4882996;28;20611;-74
2021/01/31 08:17:48;;;;;;;177.73;75.40;;;3.20;1.00;;;;;;4871822;28;20657;-73
2021/01/31 08:20:39;;;;;;;92.47;43.60;;;3.30;1.00;;;;;;4886131;28;20672;-75
2021/01/31 08:23:03;;;;;;;113.17;51.30;;;3.20;1.00;;;;;;4883016;28;20653;-73
2021/01/31 08:25:27;;;;;;;101.20;48.70;;;3.00;1.00;;;;;;4891965;28;20613;-74
2021/01/31 08:27:55;;;;;;;99.83;47.90;;;2.90;1.00;;;;;;4889613;28;21171;-73
2021/01/31 08:30:23;;;;;;;86.23;42.70;;;2.60;1.00;;;;;;4884960;28;20699;-74
2021/01/31 08:33:21;;;;;;;75.60;36.60;;;2.30;1.00;;;;;;4887036;28;20614;-73
2021/01/31 08:35:58;;;;;;;65.93;34.70;;;2.00;1.00;;;;;;4884184;28;20611;-73
2021/01/31 08:38:32;;;;;;;63.00;31.50;;;1.80;1.00;;;;;;4892197;28;21065;-75
2021/01/31 08:41:39;;;;;;;69.70;34.57;;;1.70;1.00;;;;;;4885468;28;20616;-74
2021/01/31 08:44:54;;;;;;;43.73;22.90;;;1.50;1.00;;;;;;4861480;28;20964;-73
2021/01/31 08:47:16;;;;;;;55.10;25.37;;;;;;;;;;4890800;28;20578;-74
2021/01/31 08:49:38;;;;;;;41.40;21.10;;;;;;;;;;4886980;28;21058;-74
2021/01/31 08:52:03;;;;;;;43.93;21.20;;;0.90;1.00;;;;;;4883532;28;20659;-74
2021/01/31 08:54:26;;;;;;;23.63;11.40;;;;;;;;;;4883540;28;20610;-75
2021/01/31 08:56:51;;;;;;;23.43;12.13;;;0.90;1.00;;;;;;4884026;28;20634;-75
2021/01/31 08:59:16;;;;;;;19.50;11.07;;;1.00;1.00;;;;;;4882541;28;20627;-73
2021/01/31 09:01:40;;;;;;;25.87;13.97;;;1.10;1.00;;;;;;4873004;28;20648;-74
2021/01/31 09:04:02;;;;;;;23.50;12.27;;;;;;;;;;4889069;28;20644;-74
2021/01/31 09:06:24;;;;;;;15.70;9.77;;;;;;;;;;4881834;28;20664;-74
2021/01/31 09:08:54;;;;;;;16.00;9.33;;;1.20;1.00;;;;;;4891444;28;20693;-73
2021/01/31 09:11:17;;;;;;;8.67;5.00;;;1.20;1.00;;;;;;4892835;28;20605;-74
2021/01/31 09:13:40;;;;;;;12.57;7.17;;;;;;;;;;4881984;28;20792;-74
2021/01/31 09:16:11;;;;;;;15.03;8.57;;;1.20;1.00;;;;;;4884491;28;20668;-73
2021/01/31 09:18:34;;;;;;;13.83;9.10;;;;;;;;;;4877811;28;20704;-73
2021/01/31 09:20:56;;;;;;;16.67;9.33;;;;;;;;;;4882210;28;20690;-74
2021/01/31 09:23:26;;;;;;;16.40;9.80;;;1.10;1.00;;;;;;4892930;28;20188;-73
2021/01/31 09:25:53;;;;;;;17.40;9.93;;;1.00;1.00;;;;;;4889438;28;21132;-73
2021/01/31 09:28:20;;;;;;;19.80;11.70;;;1.10;1.00;;;;;;4876605;28;20657;-73
2021/01/31 09:30:42;;;;;;;17.10;10.57;;;;;;;;;;4877740;28;20627;-73
2021/01/31 09:33:08;;;;;;;17.27;10.47;;;1.30;1.00;;;;;;4882101;28;20611;-74
2021/01/31 09:35:32;;;;;;;17.40;9.53;;;1.40;1.00;;;;;;4886646;28;20664;-73
2021/01/31 09:38:04;;;;;;;15.63;9.17;;;1.60;1.00;;;;;;4893296;28;20610;-74
2021/01/31 09:40:27;;;;;;;14.50;8.63;;;;;;;;;;4879822;28;20178;-75
2021/01/31 09:42:50;;;;;;;10.77;6.90;;;1.90;1.00;;;;;;4876383;28;20190;-73
2021/01/31 09:45:32;;;;;;;8.63;5.90;;;2.20;1.00;;;;;;4877301;28;20653;-73
2021/01/31 09:47:55;;;;;;;10.23;6.23;;;2.40;1.00;;;;;;4882234;28;20618;-74
2021/01/31 09:50:18;;;;;;;7.30;5.53;;;3.00;1.00;;;;;;4891758;28;20318;-74
2021/01/31 09:52:44;;;;;;;8.47;5.57;;;2.90;1.00;;;;;;4881879;28;20189;-74
2021/01/31 09:55:28;;;;;;;8.17;5.57;;;3.20;1.00;;;;;;4882467;28;20211;-73
2021/01/31 09:57:51;;;;;;;8.37;5.67;;;3.30;1.00;;;;;;4893135;28;20216;-73
2021/01/31 10:00:14;;;;;;;10.10;6.03;;;4.70;1.00;;;;;;4880725;28;20335;-75
2021/01/31 10:02:37;;;;;;;8.77;5.60;;;4.10;1.00;;;;;;4878969;28;20220;-75
2021/01/31 10:05:02;;;;;;;10.33;6.80;;;4.50;1.00;;;;;;4895322;28;20192;-78
2021/01/31 10:07:32;;;;;;;31.93;18.07;;;5.00;1.00;;;;;;4880152;28;20189;-81
2021/01/31 10:09:54;;;;;;;50.00;24.00;;;;;;;;;;4909227;28;20298;-79
2021/01/31 10:12:24;;;;;;;23.80;12.50;;;6.50;1.00;;;;;;4891963;28;20655;-83
2021/01/31 10:14:49;;;;;;;21.83;10.57;;;8.30;1.00;;;;;;4900950;28;20259;-78
2021/01/31 10:17:16;;;;;;;16.50;7.23;;;8.30;1.00;;;;;;4916602;28;20206;-77
2021/01/31 10:19:39;;;;;;;7.70;6.10;;;;;;;;;;4889433;28;20243;-76
2021/01/31 10:22:01;;;;;;;7.67;5.47;;;;;;;;;;4892764;28;20193;-74
2021/01/31 10:24:27;;;;;;;8.00;5.23;;;9.70;1.00;;;;;;4886394;28;20246;-79
2021/01/31 10:26:50;;;;;;;8.00;5.53;;;;;;;;;;4888155;28;20193;-76
2021/01/31 10:29:21;;;;;;;9.57;6.97;;;8.80;99.90;;;;;;4880714;28;20209;-75
2021/01/31 10:31:44;;;;;;;14.43;9.20;;;8.00;99.90;;;;;;4895295;28;20728;-74
2021/01/31 10:34:09;;;;;;;9.00;6.30;;;7.40;99.90;;;;;;4879805;28;20185;-74
2021/01/31 10:36:35;;;;;;;9.73;6.30;;;6.80;1.00;;;;;;4878280;28;20193;-74
2021/01/31 10:38:59;;;;;;;10.33;7.67;;;5.90;1.00;;;;;;4878954;28;20193;-77
2021/01/31 10:41:22;;;;;;;11.07;7.67;;;;;;;;;;4895718;28;20594;-74
2021/01/31 10:43:44;;;;;;;10.40;7.67;;;;;;;;;;4888471;28;20244;-74
2021/01/31 10:46:06;;;;;;;10.33;7.33;;;;;;;;;;4895732;28;20258;-77
2021/01/31 10:48:29;;;;;;;10.97;7.23;;;5.30;99.90;;;;;;4896522;28;20184;-74
2021/01/31 10:50:51;;;;;;;12.83;6.97;;;;;;;;;;4897368;28;20212;-74
2021/01/31 10:53:14;;;;;;;10.27;7.10;;;;;;;;;;4894652;28;20192;-73
2021/01/31 10:55:36;;;;;;;10.53;7.20;;;;;;;;;;4894778;28;20238;-77
2021/01/31 10:57:58;;;;;;;9.97;6.50;;;;;;;;;;4892453;28;20261;-73
2021/01/31 11:00:21;;;;;;;10.67;6.93;;;6.50;99.90;;;;;;4894899;28;20193;-74
2021/01/31 11:02:43;;;;;;;10.10;7.90;;;;;;;;;;4896760;28;20674;-78
2021/01/31 11:05:08;;;;;;;10.37;7.27;;;7.80;99.90;;;;;;4894499;28;20201;-74
2021/01/31 11:07:31;;;;;;;9.73;7.07;;;;;;;;;;4879293;28;20251;-73
2021/01/31 11:09:53;;;;;;;15.73;9.97;;;;;;;;;;4883361;28;20204;-74
2021/01/31 11:12:15;;;;;;;13.20;7.40;;;;;;;;;;4896463;28;20586;-72
2021/01/31 11:14:38;;;;;;;9.43;6.40;;;;;;;;;;4879805;28;20231;-73
2021/01/31 11:17:00;;;;;;;18.07;6.57;;;;;;;;;;4884535;28;20250;-74
2021/01/31 11:19:23;;;;;;;5.23;4.73;;;;;;;;;;4880286;28;20197;-74
2021/01/31 11:21:46;;;;;;;5.57;4.67;;;9.80;99.90;;;;;;4880474;28;20654;-73
2021/01/31 11:24:08;;;;;;;16.43;6.67;;;;;;;;;;4892725;28;20258;-74
2021/01/31 11:26:30;;;;;;;6.50;5.57;;;;;;;;;;4895570;28;20197;-81
2021/01/31 11:28:55;;;;;;;9.07;7.03;;;8.30;99.90;;;;;;4895616;28;20230;-74
2021/01/31 11:31:18;;;;;;;24.63;10.80;;;;;;;;;;4878159;28;20210;-73
2021/01/31 11:33:40;;;;;;;10.97;7.33;;;;;;;;;;4877140;28;20589;-73
2021/01/31 11:36:02;;;;;;;6.87;5.33;;;;;;;;;;4881780;28;20198;-73
2021/01/31 11:38:25;;;;;;;7.50;5.33;;;7.30;99.90;;;;;;4895416;28;20234;-75
2021/01/31 11:40:48;;;;;;;20.27;7.20;;;;;;;;;;4881671;28;20211;-73
2021/01/31 11:43:10;;;;;;;9.70;6.57;;;;;;;;;;4894472;28;20253;-73
2021/01/31 11:45:32;;;;;;;7.27;5.63;;;;;;;;;;4887965;28;20598;-73
2021/01/31 11:47:54;;;;;;;6.33;4.73;;;;;;;;;;4881582;28;20234;-73
2021/01/31 11:50:17;;;;;;;5.60;4.83;;;;;;;;;;4894757;28;20948;-73
2021/01/31 11:52:40;;;;;;;5.20;4.70;;;;;;;;;;4892419;28;20211;-74
2021/01/31 11:55:04;;;;;;;8.27;7.03;;;11.10;99.90;;;;;;4876757;28;20190;-75
2021/01/31 11:57:26;;;;;;;4.60;3.80;;;;;;;;;;4894034;28;20217;-75
2021/01/31 11:59:48;;;;;;;5.17;4.67;;;;;;;;;;4888535;28;20196;-74
2021/01/31 12:02:11;;;;;;;3.20;2.90;;;;;;;;;;4874163;28;20255;-75
2021/01/31 12:04:33;;;;;;;2.60;2.40;;;;;;;;;;4877664;28;20240;-73
2021/01/31 12:06:57;;;;;;;2.40;2.20;;;16.20;99.90;;;;;;4877295;28;20647;-75
2021/01/31 12:09:20;;;;;;;1.63;1.53;;;;;;;;;;4875885;28;20679;-76
2021/01/31 12:11:42;;;;;;;1.57;1.47;;;16.80;99.90;;;;;;4884127;28;20188;-74
2021/01/31 12:14:05;;;;;;;1.27;1.17;;;;;;;;;;4893306;28;20242;-74
2021/01/31 12:16:27;;;;;;;0.83;0.83;;;;;;;;;;4893297;28;20177;-75
2021/01/31 12:18:49;;;;;;;0.83;0.83;;;;;;;;;;4893969;28;20238;-74
2021/01/31 12:21:11;;;;;;;0.67;0.67;;;;;;;;;;4889753;28;20215;-74
2021/01/31 12:23:34;;;;;;;0.67;0.63;;;;;;;;;;4879089;28;20251;-74
2021/01/31 12:25:56;;;;;;;0.47;0.47;;;;;;;;;;4886019;28;20188;-74
2021/01/31 12:28:20;;;;;;;0.30;0.30;;;19.30;99.90;;;;;;4893641;28;20199;-75
2021/01/31 12:30:42;;;;;;;0.37;0.37;;;;;;;;;;4884704;28;20205;-74
2021/01/31 12:33:05;;;;;;;0.40;0.40;;;18.60;1.00;;;;;;4875842;28;20877;-76
2021/01/31 12:35:28;;;;;;;0.30;0.30;;;18.70;99.90;;;;;;4892677;28;20234;-75
2021/01/31 12:37:53;;;;;;;0.30;0.30;;;;;;;;;;4874870;28;20195;-74
2021/01/31 12:40:16;;;;;;;0.30;0.30;;;;;;;;;;4890643;28;20208;-74
2021/01/31 12:42:40;;;;;;;0.50;0.50;;;17.80;99.90;;;;;;4877513;28;20205;-74
2021/01/31 12:45:05;;;;;;;0.37;0.37;;;17.70;99.90;;;;;;4884791;28;20185;-76
2021/01/31 12:47:27;;;;;;;0.37;0.37;;;;;;;;;;4892931;28;20208;-74
2021/01/31 12:49:50;;;;;;;0.30;0.30;;;;;;;;;;4885281;28;20247;-74
2021/01/31 12:52:12;;;;;;;0.30;0.30;;;;;;;;;;4891105;28;20196;-74
2021/01/31 12:54:34;;;;;;;0.20;0.20;;;;;;;;;;4875082;28;20696;-74
2021/01/31 12:56:56;;;;;;;0.20;0.20;;;;;;;;;;4875806;28;20846;-76
2021/01/31 12:59:19;;;;;;;0.17;0.17;;;;;;;;;;4889969;28;20185;-74
2021/01/31 13:01:42;;;;;;;0.20;0.20;;;19.70;99.90;;;;;;4883243;28;20217;-75
2021/01/31 13:04:04;;;;;;;0.20;0.20;;;;;;;;;;4884272;28;20185;-73
2021/01/31 13:06:27;;;;;;;0.10;0.10;;;;;;;;;;4892739;28;20298;-71
2021/01/31 13:08:49;;;;;;;0.00;0.00;;;;;;;;;;4886579;28;20553;-76
2021/01/31 13:11:12;;;;;;;0.10;0.10;;;;;;;;;;4889664;28;20190;-74
2021/01/31 13:13:34;;;;;;;0.10;0.10;;;;;;;;;;4886712;28;20242;-76
2021/01/31 13:15:56;;;;;;;0.00;0.00;;;;;;;;;;4885994;28;20183;-71
2021/01/31 13:18:19;;;;;;;0.10;0.10;;;20.80;99.90;;;;;;4884780;28;20187;-74
2021/01/31 13:20:42;;;;;;;0.00;0.00;;;;;;;;;;4888708;28;20217;-74